Time,TemperatureF,DewpointF,PressureIn,WindDirection,WindDirectionDegrees,WindSpeedMPH,WindSpeedGustMPH,Humidity,HourlyPrecipIn,Conditions,Clouds,dailyrainin,SoftwareType,DateUTC
2013-04-27 00:02:00,70.0,-99.9,30.21,South,178,8.0,9.0,-999,-99.99,,,-99.99,,2013-04-27 05:02:00,
2013-04-27 00:12:00,70.0,-99.9,30.21,South,180,7.0,9.0,-999,-99.99,,,-99.99,,2013-04-27 05:12:00,
2013-04-27 00:22:00,70.0,-99.9,30.21,South,170,7.0,8.0,-999,-99.99,,,-99.99,,2013-04-27 05:22:00,
2013-04-27 00:32:00,70.0,-99.9,30.21,South,173,7.0,8.0,-999,-99.99,,,-99.99,,2013-04-27 05:32:00,
2013-04-27 00:42:00,70.0,-99.9,30.21,SSE,168,6.0,6.0,-999,-99.99,,,-99.99,,2013-04-27 05:42:00,
2013-04-27 00:52:00,69.0,-99.9,30.20,South,173,5.0,6.0,-999,-99.99,,,-99.99,,2013-04-27 05:52:00,
2013-04-27 01:02:00,69.0,-99.9,30.20,South,184,6.0,6.0,-999,-99.99,,,-99.99,,2013-04-27 06:02:00,
2013-04-27 01:12:00,69.0,-99.9,30.20,South,187,6.0,6.0,-999,-99.99,,,-99.99,,2013-04-27 06:12:00,
2013-04-27 01:22:00,69.0,-99.9,30.20,SSW,197,6.0,6.0,-999,-99.99,,,-99.99,,2013-04-27 06:22:00,
2013-04-27 01:32:00,69.0,-99.9,30.19,SSW,197,6.0,6.0,-999,-99.99,,,-99.99,,2013-04-27 06:32:00,
2013-04-27 01:42:00,69.0,-99.9,30.19,SSW,194,6.0,6.0,-999,-99.99,,,-99.99,,2013-04-27 06:42:00,
2013-04-27 01:52:00,69.0,-99.9,30.19,SSW,198,7.0,7.0,-999,-99.99,,,-99.99,,2013-04-27 06:52:00,
2013-04-27 02:02:00,69.0,-99.9,30.19,SSW,200,6.0,7.0,-999,-99.99,,,-99.99,,2013-04-27 07:02:00,
2013-04-27 02:11:00,69.0,-99.9,30.18,SSW,203,5.0,6.0,-999,-99.99,,,-99.99,,2013-04-27 07:11:00,
2013-04-27 02:22:00,69.0,-99.9,30.18,SW,218,4.0,4.0,-999,-99.99,,,-99.99,,2013-04-27 07:22:00,
2013-04-27 02:32:00,69.0,-99.9,30.17,SSW,202,5.0,5.0,-999,-99.99,,,-99.99,,2013-04-27 07:32:00,
2013-04-27 02:42:00,69.0,-99.9,30.17,SSW,192,4.0,4.0,-999,-99.99,,,-99.99,,2013-04-27 07:42:00,
2013-04-27 02:52:00,69.0,-99.9,30.16,SSE,166,5.0,5.0,-999,-99.99,,,-99.99,,2013-04-27 07:52:00,
2013-04-27 03:02:00,69.0,-99.9,30.16,SSE,162,6.0,7.0,-999,-99.99,,,-99.99,,2013-04-27 08:02:00,
2013-04-27 03:12:00,69.0,-99.9,30.16,South,187,6.0,6.0,-999,-99.99,,,-99.99,,2013-04-27 08:12:00,
2013-04-27 03:22:00,70.0,-99.9,30.16,SSW,194,6.0,6.0,-999,-99.99,,,-99.99,,2013-04-27 08:22:00,
2013-04-27 03:33:00,70.0,-99.9,30.15,South,174,6.0,6.0,-999,-99.99,,,-99.99,,2013-04-27 08:33:00,
2013-04-27 03:42:00,69.0,-99.9,30.15,SE,132,5.0,6.0,-999,-99.99,,,-99.99,,2013-04-27 08:42:00,
2013-04-27 03:52:00,68.0,-99.9,30.15,ENE,69,10.0,11.0,-999,-99.99,,,-99.99,,2013-04-27 08:52:00,
2013-04-27 04:01:00,69.0,-99.9,30.15,ENE,65,13.0,14.0,-999,-99.99,,,-99.99,,2013-04-27 09:01:00,
2013-04-27 04:11:00,67.0,-99.9,30.15,ENE,73,12.0,15.0,-999,-99.99,,,-99.99,,2013-04-27 09:11:00,
2013-04-27 04:22:00,67.0,-99.9,30.14,ESE,109,10.0,11.0,-999,-99.99,,,-99.99,,2013-04-27 09:22:00,
2013-04-27 04:33:00,66.0,-99.9,30.14,ESE,103,11.0,12.0,-999,-99.99,,,-99.99,,2013-04-27 09:33:00,
2013-04-27 04:43:00,67.0,-99.9,30.14,ESE,110,9.0,10.0,-999,-99.99,,,-99.99,,2013-04-27 09:43:00,
2013-04-27 04:53:00,67.0,-99.9,30.14,ESE,105,10.0,11.0,-999,-99.99,,,-99.99,,2013-04-27 09:53:00,
2013-04-27 05:03:00,67.0,-99.9,30.13,ESE,107,11.0,11.0,-999,-99.99,,,-99.99,,2013-04-27 10:03:00,
2013-04-27 05:12:00,66.0,-99.9,30.12,ESE,116,12.0,12.0,-999,-99.99,,,-99.99,,2013-04-27 10:12:00,
2013-04-27 05:23:00,66.0,-99.9,30.13,ESE,103,10.0,11.0,-999,-99.99,,,-99.99,,2013-04-27 10:23:00,
2013-04-27 05:33:00,67.0,-99.9,30.13,ESE,106,11.0,11.0,-999,-99.99,,,-99.99,,2013-04-27 10:33:00,
2013-04-27 05:42:00,67.0,-99.9,30.13,ESE,114,12.0,13.0,-999,-99.99,,,-99.99,,2013-04-27 10:42:00,
2013-04-27 05:53:00,67.0,-99.9,30.13,ESE,107,11.0,12.0,-999,-99.99,,,-99.99,,2013-04-27 10:53:00,
2013-04-27 06:03:00,67.0,-99.9,30.13,ESE,109,10.0,11.0,-999,-99.99,,,-99.99,,2013-04-27 11:03:00,
2013-04-27 06:12:00,68.0,-99.9,30.13,ESE,111,11.0,12.0,-999,-99.99,,,-99.99,,2013-04-27 11:12:00,
2013-04-27 06:22:00,68.0,-99.9,30.14,ESE,109,12.0,13.0,-999,-99.99,,,-99.99,,2013-04-27 11:22:00,
2013-04-27 06:32:00,68.0,-99.9,30.14,ESE,110,12.0,13.0,-999,-99.99,,,-99.99,,2013-04-27 11:32:00,
2013-04-27 06:42:00,68.0,-99.9,30.15,ESE,115,13.0,14.0,-999,-99.99,,,-99.99,,2013-04-27 11:42:00,
2013-04-27 06:52:00,68.0,-99.9,30.15,ESE,112,13.0,14.0,-999,-99.99,,,-99.99,,2013-04-27 11:52:00,
2013-04-27 07:02:00,68.0,-99.9,30.16,ESE,111,13.0,15.0,-999,-99.99,,,-99.99,,2013-04-27 12:02:00,
2013-04-27 07:12:00,68.0,-99.9,30.16,ESE,108,12.0,13.0,-999,-99.99,,,-99.99,,2013-04-27 12:12:00,
2013-04-27 07:22:00,68.0,-99.9,30.17,ESE,119,12.0,13.0,-999,-99.99,,,-99.99,,2013-04-27 12:22:00,
2013-04-27 07:32:00,69.0,-99.9,30.17,ESE,113,10.0,11.0,-999,-99.99,,,-99.99,,2013-04-27 12:32:00,
2013-04-27 07:42:00,68.0,-99.9,30.18,ESE,107,9.0,10.0,-999,-99.99,,,-99.99,,2013-04-27 12:42:00,
2013-04-27 07:52:00,69.0,-99.9,30.18,ESE,103,8.0,10.0,-999,-99.99,,,-99.99,,2013-04-27 12:52:00,
2013-04-27 08:02:00,69.0,-99.9,30.18,East,101,9.0,10.0,-999,-99.99,,,-99.99,,2013-04-27 13:02:00,
2013-04-27 08:12:00,70.0,-99.9,30.18,ESE,106,9.0,11.0,-999,-99.99,,,-99.99,,2013-04-27 13:12:00,
2013-04-27 08:22:00,70.0,-99.9,30.19,ESE,112,9.0,11.0,-999,-99.99,,,-99.99,,2013-04-27 13:22:00,
2013-04-27 08:32:00,70.0,-99.9,30.19,ESE,114,8.0,10.0,-999,-99.99,,,-99.99,,2013-04-27 13:32:00,
2013-04-27 08:42:00,70.0,-99.9,30.19,ESE,112,9.0,11.0,-999,-99.99,,,-99.99,,2013-04-27 13:42:00,
2013-04-27 08:52:00,70.0,-99.9,30.19,ESE,108,9.0,13.0,-999,-99.99,,,-99.99,,2013-04-27 13:52:00,
2013-04-27 09:02:00,71.0,-99.9,30.19,ESE,104,8.0,12.0,-999,-99.99,,,-99.99,,2013-04-27 14:02:00,
2013-04-27 09:11:00,70.0,-99.9,30.19,ESE,115,10.0,13.0,-999,-99.99,,,-99.99,,2013-04-27 14:11:00,
2013-04-27 09:22:00,70.0,-99.9,30.19,ESE,115,10.0,12.0,-999,-99.99,,,-99.99,,2013-04-27 14:22:00,
2013-04-27 09:32:00,71.0,-99.9,30.20,ESE,114,9.0,13.0,-999,-99.99,,,-99.99,,2013-04-27 14:32:00,
2013-04-27 09:42:00,71.0,-99.9,30.19,ESE,121,9.0,12.0,-999,-99.99,,,-99.99,,2013-04-27 14:42:00,
2013-04-27 09:52:00,71.0,-99.9,30.19,ESE,119,10.0,11.0,-999,-99.99,,,-99.99,,2013-04-27 14:52:00,
2013-04-27 10:02:00,71.0,-99.9,30.19,SE,124,9.0,11.0,-999,-99.99,,,-99.99,,2013-04-27 15:02:00,
2013-04-27 10:12:00,71.0,-99.9,30.19,SE,126,11.0,13.0,-999,-99.99,,,-99.99,,2013-04-27 15:12:00,
2013-04-27 10:22:00,71.0,-99.9,30.19,SE,124,11.0,13.0,-999,-99.99,,,-99.99,,2013-04-27 15:22:00,
2013-04-27 10:33:00,71.0,-99.9,30.19,ESE,123,10.0,13.0,-999,-99.99,,,-99.99,,2013-04-27 15:33:00,
2013-04-27 10:43:00,71.0,-99.9,30.19,ESE,120,12.0,14.0,-999,-99.99,,,-99.99,,2013-04-27 15:43:00,
2013-04-27 10:53:00,71.0,-99.9,30.19,ESE,118,11.0,13.0,-999,-99.99,,,-99.99,,2013-04-27 15:53:00,
2013-04-27 11:03:00,71.0,-99.9,30.19,ESE,114,12.0,14.0,-999,-99.99,,,-99.99,,2013-04-27 16:03:00,
2013-04-27 11:13:00,71.0,-99.9,30.19,ESE,119,11.0,15.0,-999,-99.99,,,-99.99,,2013-04-27 16:13:00,
2013-04-27 11:23:00,71.0,-99.9,30.19,ESE,119,13.0,16.0,-999,-99.99,,,-99.99,,2013-04-27 16:23:00,
2013-04-27 11:33:00,71.0,-99.9,30.19,ESE,120,13.0,16.0,-999,-99.99,,,-99.99,,2013-04-27 16:33:00,
2013-04-27 11:42:00,71.0,-99.9,30.19,ESE,123,13.0,16.0,-999,-99.99,,,-99.99,,2013-04-27 16:42:00,
2013-04-27 11:53:00,71.0,-99.9,30.18,ESE,119,16.0,17.0,-999,-99.99,,,-99.99,,2013-04-27 16:53:00,
2013-04-27 12:02:00,71.0,-99.9,30.18,ESE,123,15.0,17.0,-999,-99.99,,,-99.99,,2013-04-27 17:02:00,
2013-04-27 12:12:00,72.0,-99.9,30.19,ESE,119,13.0,16.0,-999,-99.99,,,-99.99,,2013-04-27 17:12:00,
2013-04-27 12:22:00,72.0,-99.9,30.18,ESE,122,13.0,17.0,-999,-99.99,,,-99.99,,2013-04-27 17:22:00,
2013-04-27 12:32:00,72.0,-99.9,30.18,ESE,122,14.0,17.0,-999,-99.99,,,-99.99,,2013-04-27 17:32:00,
2013-04-27 12:42:00,72.0,-99.9,30.18,ESE,119,14.0,17.0,-999,-99.99,,,-99.99,,2013-04-27 17:42:00,
2013-04-27 12:53:00,72.0,-99.9,30.18,SE,125,13.0,16.0,-999,-99.99,,,-99.99,,2013-04-27 17:53:00,
2013-04-27 13:02:00,72.0,-99.9,30.17,SE,127,13.0,16.0,-999,-99.99,,,-99.99,,2013-04-27 18:02:00,
2013-04-27 13:12:00,73.0,-99.9,30.17,SE,132,13.0,15.0,-999,-99.99,,,-99.99,,2013-04-27 18:12:00,
2013-04-27 13:22:00,73.0,-99.9,30.16,SE,133,14.0,16.0,-999,-99.99,,,-99.99,,2013-04-27 18:22:00,
2013-04-27 13:32:00,73.0,-99.9,30.16,SE,131,14.0,17.0,-999,-99.99,,,-99.99,,2013-04-27 18:32:00,
2013-04-27 13:42:00,73.0,-99.9,30.16,SE,134,14.0,17.0,-999,-99.99,,,-99.99,,2013-04-27 18:42:00,
2013-04-27 13:52:00,73.0,-99.9,30.15,SE,136,17.0,19.0,-999,-99.99,,,-99.99,,2013-04-27 18:52:00,
2013-04-27 14:02:00,73.0,-99.9,30.15,SE,136,16.0,20.0,-999,-99.99,,,-99.99,,2013-04-27 19:02:00,
2013-04-27 14:11:00,72.0,-99.9,30.14,SE,138,18.0,21.0,-999,-99.99,,,-99.99,,2013-04-27 19:11:00,
2013-04-27 14:22:00,73.0,-99.9,30.14,SE,137,14.0,18.0,-999,-99.99,,,-99.99,,2013-04-27 19:22:00,
2013-04-27 14:32:00,73.0,-99.9,30.14,SE,139,14.0,17.0,-999,-99.99,,,-99.99,,2013-04-27 19:32:00,
2013-04-27 14:42:00,73.0,-99.9,30.14,SE,139,13.0,15.0,-999,-99.99,,,-99.99,,2013-04-27 19:42:00,
2013-04-27 14:53:00,73.0,-99.9,30.15,SE,134,10.0,13.0,-999,-99.99,,,-99.99,,2013-04-27 19:53:00,
2013-04-27 15:02:00,73.0,-99.9,30.15,SE,132,10.0,11.0,-999,-99.99,,,-99.99,,2013-04-27 20:02:00,
2013-04-27 15:11:00,73.0,-99.9,30.14,SE,134,10.0,13.0,-999,-99.99,,,-99.99,,2013-04-27 20:11:00,
2013-04-27 15:22:00,73.0,-99.9,30.14,SE,131,12.0,13.0,-999,-99.99,,,-99.99,,2013-04-27 20:22:00,
2013-04-27 15:32:00,73.0,-99.9,30.14,SE,130,11.0,13.0,-999,-99.99,,,-99.99,,2013-04-27 20:32:00,
2013-04-27 15:42:00,73.0,-99.9,30.13,SE,129,11.0,13.0,-999,-99.99,,,-99.99,,2013-04-27 20:42:00,
2013-04-27 15:52:00,73.0,-99.9,30.13,SE,132,11.0,13.0,-999,-99.99,,,-99.99,,2013-04-27 20:52:00,
2013-04-27 16:02:00,73.0,-99.9,30.12,SE,134,11.0,15.0,-999,-99.99,,,-99.99,,2013-04-27 21:02:00,
2013-04-27 16:12:00,73.0,-99.9,30.12,SE,134,13.0,14.0,-999,-99.99,,,-99.99,,2013-04-27 21:12:00,
2013-04-27 16:22:00,73.0,-99.9,30.11,SE,136,13.0,15.0,-999,-99.99,,,-99.99,,2013-04-27 21:22:00,
2013-04-27 16:33:00,73.0,-99.9,30.11,SE,137,12.0,13.0,-999,-99.99,,,-99.99,,2013-04-27 21:33:00,
2013-04-27 16:43:00,73.0,-99.9,30.11,SE,137,10.0,13.0,-999,-99.99,,,-99.99,,2013-04-27 21:43:00,
2013-04-27 16:53:00,73.0,-99.9,30.11,SE,137,9.0,12.0,-999,-99.99,,,-99.99,,2013-04-27 21:53:00,
2013-04-27 17:03:00,73.0,-99.9,30.11,SE,137,10.0,12.0,-999,-99.99,,,-99.99,,2013-04-27 22:03:00,
2013-04-27 17:13:00,73.0,-99.9,30.11,SE,142,11.0,12.0,-999,-99.99,,,-99.99,,2013-04-27 22:13:00,
2013-04-27 17:23:00,72.0,-99.9,30.11,SE,140,10.0,12.0,-999,-99.99,,,-99.99,,2013-04-27 22:23:00,
2013-04-27 17:32:00,72.0,-99.9,30.11,SE,142,11.0,12.0,-999,-99.99,,,-99.99,,2013-04-27 22:32:00,
2013-04-27 17:42:00,72.0,-99.9,30.10,SE,144,11.0,13.0,-999,-99.99,,,-99.99,,2013-04-27 22:42:00,
2013-04-27 17:53:00,73.0,-99.9,30.10,SE,142,11.0,13.0,-999,-99.99,,,-99.99,,2013-04-27 22:53:00,
2013-04-27 18:02:00,72.0,-99.9,30.10,SE,145,11.0,12.0,-999,-99.99,,,-99.99,,2013-04-27 23:02:00,
2013-04-27 18:12:00,73.0,-99.9,30.11,SSE,158,7.0,8.0,-999,-99.99,,,-99.99,,2013-04-27 23:12:00,
2013-04-27 18:22:00,72.0,-99.9,30.10,SSE,152,8.0,10.0,-999,-99.99,,,-99.99,,2013-04-27 23:22:00,
2013-04-27 18:32:00,72.0,-99.9,30.10,SSE,148,9.0,11.0,-999,-99.99,,,-99.99,,2013-04-27 23:32:00,
2013-04-27 18:43:00,72.0,-99.9,30.09,SSE,151,10.0,12.0,-999,-99.99,,,-99.99,,2013-04-27 23:43:00,
2013-04-27 18:52:00,72.0,-99.9,30.09,SSE,147,13.0,15.0,-999,-99.99,,,-99.99,,2013-04-27 23:52:00,
2013-04-27 19:02:00,72.0,-99.9,30.09,SSE,149,11.0,13.0,-999,-99.99,,,-99.99,,2013-04-28 00:02:00,
2013-04-27 19:12:00,72.0,-99.9,30.09,SSE,150,9.0,11.0,-999,-99.99,,,-99.99,,2013-04-28 00:12:00,
2013-04-27 19:22:00,71.0,-99.9,30.09,SSE,150,9.0,11.0,-999,-99.99,,,-99.99,,2013-04-28 00:22:00,
2013-04-27 19:32:00,71.0,-99.9,30.09,SSE,148,10.0,11.0,-999,-99.99,,,-99.99,,2013-04-28 00:32:00,
2013-04-27 19:43:00,71.0,-99.9,30.09,SSE,153,8.0,9.0,-999,-99.99,,,-99.99,,2013-04-28 00:43:00,
2013-04-27 19:52:00,71.0,-99.9,30.09,SSE,151,9.0,11.0,-999,-99.99,,,-99.99,,2013-04-28 00:52:00,
2013-04-27 20:02:00,71.0,-99.9,30.08,SSE,147,9.0,10.0,-999,-99.99,,,-99.99,,2013-04-28 01:02:00,
2013-04-27 20:12:00,71.0,-99.9,30.09,SSE,152,7.0,9.0,-999,-99.99,,,-99.99,,2013-04-28 01:12:00,
2013-04-27 20:22:00,71.0,-99.9,30.08,SE,146,10.0,11.0,-999,-99.99,,,-99.99,,2013-04-28 01:22:00,
2013-04-27 20:32:00,71.0,-99.9,30.08,SSE,149,10.0,11.0,-999,-99.99,,,-99.99,,2013-04-28 01:32:00,
2013-04-27 20:42:00,71.0,-99.9,30.08,SSE,150,11.0,13.0,-999,-99.99,,,-99.99,,2013-04-28 01:42:00,
2013-04-27 20:52:00,71.0,-99.9,30.07,SSE,153,12.0,14.0,-999,-99.99,,,-99.99,,2013-04-28 01:52:00,
2013-04-27 21:02:00,71.0,-99.9,30.05,SSE,157,19.0,21.0,-999,-99.99,,,-99.99,,2013-04-28 02:02:00,
2013-04-27 21:12:00,71.0,-99.9,30.06,SSE,155,17.0,19.0,-999,-99.99,,,-99.99,,2013-04-28 02:12:00,
2013-04-27 21:22:00,71.0,-99.9,30.06,SSE,160,15.0,17.0,-999,-99.99,,,-99.99,,2013-04-28 02:22:00,
2013-04-27 21:32:00,71.0,-99.9,30.06,SSE,157,16.0,18.0,-999,-99.99,,,-99.99,,2013-04-28 02:32:00,
2013-04-27 21:42:00,71.0,-99.9,30.06,SSE,157,15.0,18.0,-999,-99.99,,,-99.99,,2013-04-28 02:42:00,
2013-04-27 21:52:00,71.0,-99.9,30.06,SSE,164,13.0,16.0,-999,-99.99,,,-99.99,,2013-04-28 02:52:00,
2013-04-27 22:01:00,71.0,-99.9,30.06,SSE,165,14.0,16.0,-999,-99.99,,,-99.99,,2013-04-28 03:01:00,
2013-04-27 22:12:00,71.0,-99.9,30.07,SSE,168,14.0,15.0,-999,-99.99,,,-99.99,,2013-04-28 03:12:00,
2013-04-27 22:22:00,71.0,-99.9,30.07,South,169,12.0,14.0,-999,-99.99,,,-99.99,,2013-04-28 03:22:00,
2013-04-27 22:33:00,71.0,-99.9,30.07,SSE,167,11.0,13.0,-999,-99.99,,,-99.99,,2013-04-28 03:33:00,
2013-04-27 22:43:00,71.0,-99.9,30.08,South,171,12.0,13.0,-999,-99.99,,,-99.99,,2013-04-28 03:43:00,
2013-04-27 22:53:00,71.0,-99.9,30.08,South,172,10.0,12.0,-999,-99.99,,,-99.99,,2013-04-28 03:53:00,
2013-04-27 23:03:00,71.0,-99.9,30.08,South,171,10.0,11.0,-999,-99.99,,,-99.99,,2013-04-28 04:03:00,
2013-04-27 23:13:00,71.0,-99.9,30.08,South,176,11.0,13.0,-999,-99.99,,,-99.99,,2013-04-28 04:13:00,
2013-04-27 23:23:00,71.0,-99.9,30.08,South,176,13.0,17.0,-999,-99.99,,,-99.99,,2013-04-28 04:23:00,
2013-04-27 23:32:00,71.0,-99.9,30.08,South,183,15.0,17.0,-999,-99.99,,,-99.99,,2013-04-28 04:32:00,
2013-04-27 23:43:00,71.0,-99.9,30.08,South,181,14.0,16.0,-999,-99.99,,,-99.99,,2013-04-28 04:43:00,
2013-04-27 23:53:00,71.0,-99.9,30.08,South,188,13.0,14.0,-999,-99.99,,,-99.99,,2013-04-28 04:53:00,